sensor_id;sensor_type;location;lat;lon;timestamp;temperature;humidity
12013;DHT22;6065;48.138;16.402;2023-04-03T00:01:02;7.30;99.70
12013;DHT22;6065;48.138;16.402;2023-04-03T00:03:29;7.30;99.80
12013;DHT22;6065;48.138;16.402;2023-04-03T00:05:56;7.20;99.80
12013;DHT22;6065;48.138;16.402;2023-04-03T00:08:23;7.20;99.70
12013;DHT22;6065;48.138;16.402;2023-04-03T00:10:49;7.30;99.80
12013;DHT22;6065;48.138;16.402;2023-04-03T00:13:17;7.30;99.70
12013;DHT22;6065;48.138;16.402;2023-04-03T00:15:44;7.20;99.80
12013;DHT22;6065;48.138;16.402;2023-04-03T00:18:11;7.20;99.80
12013;DHT22;6065;48.138;16.402;2023-04-03T00:20:38;7.20;99.80
12013;DHT22;6065;48.138;16.402;2023-04-03T00:23:05;7.30;99.80
12013;DHT22;6065;48.138;16.402;2023-04-03T00:25:31;7.20;99.70
12013;DHT22;6065;48.138;16.402;2023-04-03T00:27:58;7.20;99.70
12013;DHT22;6065;48.138;16.402;2023-04-03T00:30:26;7.20;99.70
12013;DHT22;6065;48.138;16.402;2023-04-03T00:32:53;7.20;99.90
12013;DHT22;6065;48.138;16.402;2023-04-03T00:35:20;7.20;99.90
12013;DHT22;6065;48.138;16.402;2023-04-03T00:37:47;7.30;99.90
12013;DHT22;6065;48.138;16.402;2023-04-03T00:40:15;7.20;99.90
12013;DHT22;6065;48.138;16.402;2023-04-03T00:42:42;7.20;99.90
12013;DHT22;6065;48.138;16.402;2023-04-03T00:45:31;7.20;99.90
12013;DHT22;6065;48.138;16.402;2023-04-03T00:47:58;7.20;99.90
12013;DHT22;6065;48.138;16.402;2023-04-03T00:50:26;7.20;99.80
12013;DHT22;6065;48.138;16.402;2023-04-03T00:52:53;7.20;99.90
12013;DHT22;6065;48.138;16.402;2023-04-03T00:55:20;7.20;99.90
12013;DHT22;6065;48.138;16.402;2023-04-03T00:57:47;7.20;99.90
12013;DHT22;6065;48.138;16.402;2023-04-03T01:00:15;7.20;99.90
12013;DHT22;6065;48.138;16.402;2023-04-03T01:02:44;7.20;99.90
12013;DHT22;6065;48.138;16.402;2023-04-03T01:05:11;7.20;99.90
12013;DHT22;6065;48.138;16.402;2023-04-03T01:07:38;7.20;99.90
12013;DHT22;6065;48.138;16.402;2023-04-03T01:10:06;7.20;99.90
12013;DHT22;6065;48.138;16.402;2023-04-03T01:12:34;7.20;99.90
12013;DHT22;6065;48.138;16.402;2023-04-03T01:15:02;7.20;99.90
12013;DHT22;6065;48.138;16.402;2023-04-03T01:17:30;7.20;99.90
12013;DHT22;6065;48.138;16.402;2023-04-03T01:20:05;7.20;99.90
12013;DHT22;6065;48.138;16.402;2023-04-03T01:22:38;7.10;99.90
12013;DHT22;6065;48.138;16.402;2023-04-03T01:25:06;7.10;99.90
12013;DHT22;6065;48.138;16.402;2023-04-03T01:27:33;7.10;99.90
12013;DHT22;6065;48.138;16.402;2023-04-03T01:29:59;7.10;99.90
12013;DHT22;6065;48.138;16.402;2023-04-03T01:32:27;7.20;99.90
12013;DHT22;6065;48.138;16.402;2023-04-03T01:34:54;7.20;99.90
12013;DHT22;6065;48.138;16.402;2023-04-03T01:37:21;7.10;99.90
12013;DHT22;6065;48.138;16.402;2023-04-03T01:39:47;7.10;99.90
12013;DHT22;6065;48.138;16.402;2023-04-03T01:42:14;7.10;99.90
12013;DHT22;6065;48.138;16.402;2023-04-03T01:44:41;7.10;99.90
12013;DHT22;6065;48.138;16.402;2023-04-03T01:47:07;7.00;99.90
12013;DHT22;6065;48.138;16.402;2023-04-03T01:49:35;7.00;99.90
12013;DHT22;6065;48.138;16.402;2023-04-03T01:52:02;7.10;99.90
12013;DHT22;6065;48.138;16.402;2023-04-03T01:54:29;7.10;99.90
12013;DHT22;6065;48.138;16.402;2023-04-03T01:56:56;7.10;99.90
12013;DHT22;6065;48.138;16.402;2023-04-03T01:59:22;7.10;99.90
12013;DHT22;6065;48.138;16.402;2023-04-03T02:01:49;7.00;99.90
12013;DHT22;6065;48.138;16.402;2023-04-03T02:04:16;7.00;99.90
12013;DHT22;6065;48.138;16.402;2023-04-03T02:06:44;7.00;99.90
12013;DHT22;6065;48.138;16.402;2023-04-03T02:09:11;7.00;99.90
12013;DHT22;6065;48.138;16.402;2023-04-03T02:11:37;7.00;99.90
12013;DHT22;6065;48.138;16.402;2023-04-03T02:14:04;7.00;99.90
12013;DHT22;6065;48.138;16.402;2023-04-03T02:16:31;7.00;99.90
12013;DHT22;6065;48.138;16.402;2023-04-03T02:18:58;7.00;99.90
12013;DHT22;6065;48.138;16.402;2023-04-03T02:21:24;7.00;99.90
12013;DHT22;6065;48.138;16.402;2023-04-03T02:23:52;7.00;99.90
12013;DHT22;6065;48.138;16.402;2023-04-03T02:26:19;7.00;99.90
12013;DHT22;6065;48.138;16.402;2023-04-03T02:28:46;7.00;99.90
12013;DHT22;6065;48.138;16.402;2023-04-03T02:31:13;7.00;99.90
12013;DHT22;6065;48.138;16.402;2023-04-03T02:33:40;7.00;99.90
12013;DHT22;6065;48.138;16.402;2023-04-03T02:36:07;7.00;99.90
12013;DHT22;6065;48.138;16.402;2023-04-03T02:38:33;6.90;99.90
12013;DHT22;6065;48.138;16.402;2023-04-03T02:41:02;6.90;99.90
12013;DHT22;6065;48.138;16.402;2023-04-03T02:43:29;6.90;99.90
12013;DHT22;6065;48.138;16.402;2023-04-03T02:45:56;6.90;99.90
12013;DHT22;6065;48.138;16.402;2023-04-03T02:48:22;6.90;99.90
12013;DHT22;6065;48.138;16.402;2023-04-03T02:50:49;6.90;99.90
12013;DHT22;6065;48.138;16.402;2023-04-03T02:53:16;6.90;99.90
12013;DHT22;6065;48.138;16.402;2023-04-03T02:55:43;6.90;99.90
12013;DHT22;6065;48.138;16.402;2023-04-03T02:58:11;6.90;99.90
12013;DHT22;6065;48.138;16.402;2023-04-03T03:00:38;6.90;99.90
12013;DHT22;6065;48.138;16.402;2023-04-03T03:03:06;6.90;99.90
12013;DHT22;6065;48.138;16.402;2023-04-03T03:05:33;6.90;99.90
12013;DHT22;6065;48.138;16.402;2023-04-03T03:08:00;6.90;99.90
12013;DHT22;6065;48.138;16.402;2023-04-03T03:10:27;7.00;99.90
12013;DHT22;6065;48.138;16.402;2023-04-03T03:12:53;6.80;99.90
12013;DHT22;6065;48.138;16.402;2023-04-03T03:15:21;6.80;99.90
12013;DHT22;6065;48.138;16.402;2023-04-03T03:17:48;6.90;99.90
12013;DHT22;6065;48.138;16.402;2023-04-03T03:20:15;6.90;99.90
12013;DHT22;6065;48.138;16.402;2023-04-03T03:22:42;6.80;99.90
12013;DHT22;6065;48.138;16.402;2023-04-03T03:25:08;6.80;99.90
12013;DHT22;6065;48.138;16.402;2023-04-03T03:27:35;6.80;99.90
12013;DHT22;6065;48.138;16.402;2023-04-03T03:30:02;6.70;99.90
12013;DHT22;6065;48.138;16.402;2023-04-03T03:32:30;6.70;99.90
12013;DHT22;6065;48.138;16.402;2023-04-03T03:34:57;6.70;99.90
12013;DHT22;6065;48.138;16.402;2023-04-03T03:37:23;6.70;99.90
12013;DHT22;6065;48.138;16.402;2023-04-03T03:39:50;6.70;99.90
12013;DHT22;6065;48.138;16.402;2023-04-03T03:42:17;6.70;99.90
12013;DHT22;6065;48.138;16.402;2023-04-03T03:44:43;6.60;99.90
12013;DHT22;6065;48.138;16.402;2023-04-03T03:47:10;6.70;99.90
12013;DHT22;6065;48.138;16.402;2023-04-03T03:49:38;6.70;99.90
12013;DHT22;6065;48.138;16.402;2023-04-03T03:52:06;6.70;99.90
12013;DHT22;6065;48.138;16.402;2023-04-03T03:54:35;6.70;99.90
12013;DHT22;6065;48.138;16.402;2023-04-03T03:57:02;6.70;99.90
12013;DHT22;6065;48.138;16.402;2023-04-03T03:59:29;6.70;99.90
12013;DHT22;6065;48.138;16.402;2023-04-03T04:01:55;6.70;99.90
12013;DHT22;6065;48.138;16.402;2023-04-03T04:04:22;6.80;99.90
12013;DHT22;6065;48.138;16.402;2023-04-03T04:06:50;6.70;99.90
12013;DHT22;6065;48.138;16.402;2023-04-03T04:09:17;6.70;99.90
12013;DHT22;6065;48.138;16.402;2023-04-03T04:11:44;6.80;99.90
12013;DHT22;6065;48.138;16.402;2023-04-03T04:14:10;6.70;99.90
12013;DHT22;6065;48.138;16.402;2023-04-03T04:16:38;6.70;99.90
12013;DHT22;6065;48.138;16.402;2023-04-03T04:19:05;6.70;99.90
12013;DHT22;6065;48.138;16.402;2023-04-03T04:21:32;6.60;99.90
12013;DHT22;6065;48.138;16.402;2023-04-03T04:24:00;6.60;99.90
12013;DHT22;6065;48.138;16.402;2023-04-03T04:26:26;6.60;99.90
12013;DHT22;6065;48.138;16.402;2023-04-03T04:28:53;6.60;99.90
12013;DHT22;6065;48.138;16.402;2023-04-03T04:31:20;6.60;99.90
12013;DHT22;6065;48.138;16.402;2023-04-03T04:33:46;6.60;99.90
12013;DHT22;6065;48.138;16.402;2023-04-03T04:36:13;6.60;99.90
12013;DHT22;6065;48.138;16.402;2023-04-03T04:38:40;6.60;99.90
12013;DHT22;6065;48.138;16.402;2023-04-03T04:41:08;6.60;99.90
12013;DHT22;6065;48.138;16.402;2023-04-03T04:43:35;6.50;99.90
12013;DHT22;6065;48.138;16.402;2023-04-03T04:46:03;6.50;99.90
12013;DHT22;6065;48.138;16.402;2023-04-03T04:48:30;6.50;99.90
12013;DHT22;6065;48.138;16.402;2023-04-03T04:50:56;6.50;99.90
12013;DHT22;6065;48.138;16.402;2023-04-03T04:53:23;6.60;99.90
12013;DHT22;6065;48.138;16.402;2023-04-03T04:55:50;6.50;99.90
12013;DHT22;6065;48.138;16.402;2023-04-03T04:58:18;6.50;99.90
12013;DHT22;6065;48.138;16.402;2023-04-03T05:00:45;6.50;99.90
12013;DHT22;6065;48.138;16.402;2023-04-03T05:03:11;6.50;99.90
12013;DHT22;6065;48.138;16.402;2023-04-03T05:05:38;6.50;99.90
12013;DHT22;6065;48.138;16.402;2023-04-03T05:08:05;6.50;99.90
12013;DHT22;6065;48.138;16.402;2023-04-03T05:10:33;6.50;99.90
12013;DHT22;6065;48.138;16.402;2023-04-03T05:13:00;6.40;99.90
12013;DHT22;6065;48.138;16.402;2023-04-03T05:15:28;6.50;99.90
12013;DHT22;6065;48.138;16.402;2023-04-03T05:17:55;6.50;99.90
12013;DHT22;6065;48.138;16.402;2023-04-03T05:20:22;6.40;99.90
12013;DHT22;6065;48.138;16.402;2023-04-03T05:22:48;6.40;99.90
12013;DHT22;6065;48.138;16.402;2023-04-03T05:25:15;6.40;99.90
12013;DHT22;6065;48.138;16.402;2023-04-03T05:27:42;6.40;99.90
12013;DHT22;6065;48.138;16.402;2023-04-03T05:30:08;6.50;99.90
12013;DHT22;6065;48.138;16.402;2023-04-03T05:32:37;6.50;99.90
12013;DHT22;6065;48.138;16.402;2023-04-03T05:35:04;6.50;99.90
12013;DHT22;6065;48.138;16.402;2023-04-03T05:37:31;6.40;99.90
12013;DHT22;6065;48.138;16.402;2023-04-03T05:39:58;6.40;99.90
12013;DHT22;6065;48.138;16.402;2023-04-03T05:42:24;6.40;99.90
12013;DHT22;6065;48.138;16.402;2023-04-03T05:44:51;6.40;99.90
12013;DHT22;6065;48.138;16.402;2023-04-03T05:47:18;6.40;99.90
12013;DHT22;6065;48.138;16.402;2023-04-03T05:49:46;6.40;99.90
12013;DHT22;6065;48.138;16.402;2023-04-03T05:52:16;6.40;99.90
12013;DHT22;6065;48.138;16.402;2023-04-03T05:54:44;6.40;99.90
12013;DHT22;6065;48.138;16.402;2023-04-03T05:57:13;6.40;99.90
12013;DHT22;6065;48.138;16.402;2023-04-03T05:59:41;6.40;99.90
12013;DHT22;6065;48.138;16.402;2023-04-03T06:02:09;6.40;99.90
12013;DHT22;6065;48.138;16.402;2023-04-03T06:04:36;6.40;99.90
12013;DHT22;6065;48.138;16.402;2023-04-03T06:07:04;6.50;99.90
12013;DHT22;6065;48.138;16.402;2023-04-03T06:09:31;6.50;99.90
12013;DHT22;6065;48.138;16.402;2023-04-03T06:11:58;6.50;99.90
12013;DHT22;6065;48.138;16.402;2023-04-03T06:14:25;6.50;99.90
12013;DHT22;6065;48.138;16.402;2023-04-03T06:16:52;6.50;99.90
12013;DHT22;6065;48.138;16.402;2023-04-03T06:19:19;6.50;99.90
12013;DHT22;6065;48.138;16.402;2023-04-03T06:21:46;6.50;99.90
12013;DHT22;6065;48.138;16.402;2023-04-03T06:24:15;6.50;99.90
12013;DHT22;6065;48.138;16.402;2023-04-03T06:26:42;6.50;99.90
12013;DHT22;6065;48.138;16.402;2023-04-03T06:29:09;6.40;99.90
12013;DHT22;6065;48.138;16.402;2023-04-03T06:31:35;6.50;99.90
12013;DHT22;6065;48.138;16.402;2023-04-03T06:34:02;6.50;99.90
12013;DHT22;6065;48.138;16.402;2023-04-03T06:36:29;6.50;99.90
12013;DHT22;6065;48.138;16.402;2023-04-03T06:38:57;6.40;99.70
12013;DHT22;6065;48.138;16.402;2023-04-03T06:41:25;6.40;99.70
12013;DHT22;6065;48.138;16.402;2023-04-03T06:43:52;6.40;99.60
12013;DHT22;6065;48.138;16.402;2023-04-03T06:46:20;6.40;99.80
12013;DHT22;6065;48.138;16.402;2023-04-03T06:48:47;6.40;99.80
12013;DHT22;6065;48.138;16.402;2023-04-03T06:51:16;6.40;99.60
12013;DHT22;6065;48.138;16.402;2023-04-03T06:53:44;6.40;99.70
12013;DHT22;6065;48.138;16.402;2023-04-03T06:56:11;6.40;99.80
12013;DHT22;6065;48.138;16.402;2023-04-03T06:58:40;6.50;99.40
12013;DHT22;6065;48.138;16.402;2023-04-03T07:01:08;6.50;99.20
12013;DHT22;6065;48.138;16.402;2023-04-03T07:03:36;6.60;99.30
12013;DHT22;6065;48.138;16.402;2023-04-03T07:06:02;6.40;99.10
12013;DHT22;6065;48.138;16.402;2023-04-03T07:08:29;6.40;99.10
12013;DHT22;6065;48.138;16.402;2023-04-03T07:10:56;6.40;98.80
12013;DHT22;6065;48.138;16.402;2023-04-03T07:13:22;6.50;98.70
12013;DHT22;6065;48.138;16.402;2023-04-03T07:15:50;6.40;98.80
12013;DHT22;6065;48.138;16.402;2023-04-03T07:18:18;6.50;98.80
12013;DHT22;6065;48.138;16.402;2023-04-03T07:20:44;6.50;98.70
12013;DHT22;6065;48.138;16.402;2023-04-03T07:23:11;6.40;98.70
12013;DHT22;6065;48.138;16.402;2023-04-03T07:25:41;6.50;98.70
12013;DHT22;6065;48.138;16.402;2023-04-03T07:28:08;6.50;98.80
12013;DHT22;6065;48.138;16.402;2023-04-03T07:30:40;6.50;98.50
12013;DHT22;6065;48.138;16.402;2023-04-03T07:33:09;6.50;98.40
12013;DHT22;6065;48.138;16.402;2023-04-03T07:35:36;6.50;98.20
12013;DHT22;6065;48.138;16.402;2023-04-03T07:38:02;6.50;98.10
12013;DHT22;6065;48.138;16.402;2023-04-03T07:40:29;6.40;98.00
12013;DHT22;6065;48.138;16.402;2023-04-03T07:42:56;6.50;98.00
12013;DHT22;6065;48.138;16.402;2023-04-03T07:45:23;6.60;98.00
12013;DHT22;6065;48.138;16.402;2023-04-03T07:47:50;6.60;98.00
12013;DHT22;6065;48.138;16.402;2023-04-03T07:50:18;6.60;98.00
12013;DHT22;6065;48.138;16.402;2023-04-03T07:52:45;6.70;98.10
12013;DHT22;6065;48.138;16.402;2023-04-03T07:55:12;6.80;97.60
12013;DHT22;6065;48.138;16.402;2023-04-03T07:57:38;6.80;97.10
12013;DHT22;6065;48.138;16.402;2023-04-03T08:00:05;6.80;96.90
12013;DHT22;6065;48.138;16.402;2023-04-03T08:02:32;6.80;97.00
12013;DHT22;6065;48.138;16.402;2023-04-03T08:04:59;6.90;96.80
12013;DHT22;6065;48.138;16.402;2023-04-03T08:07:27;7.00;96.80
12013;DHT22;6065;48.138;16.402;2023-04-03T08:09:54;7.00;96.80
12013;DHT22;6065;48.138;16.402;2023-04-03T08:12:21;7.00;96.50
12013;DHT22;6065;48.138;16.402;2023-04-03T08:14:48;7.00;96.50
12013;DHT22;6065;48.138;16.402;2023-04-03T08:17:14;7.00;96.50
12013;DHT22;6065;48.138;16.402;2023-04-03T08:19:41;7.00;96.30
12013;DHT22;6065;48.138;16.402;2023-04-03T08:22:08;7.10;96.20
12013;DHT22;6065;48.138;16.402;2023-04-03T08:24:37;7.10;96.10
12013;DHT22;6065;48.138;16.402;2023-04-03T08:27:03;7.10;95.90
12013;DHT22;6065;48.138;16.402;2023-04-03T08:29:30;7.20;95.00
12013;DHT22;6065;48.138;16.402;2023-04-03T08:31:57;7.20;94.90
12013;DHT22;6065;48.138;16.402;2023-04-03T08:34:23;7.30;95.10
12013;DHT22;6065;48.138;16.402;2023-04-03T08:36:50;7.40;95.30
12013;DHT22;6065;48.138;16.402;2023-04-03T08:39:17;7.40;95.30
12013;DHT22;6065;48.138;16.402;2023-04-03T08:41:45;7.40;95.10
12013;DHT22;6065;48.138;16.402;2023-04-03T08:44:14;7.30;95.00
12013;DHT22;6065;48.138;16.402;2023-04-03T08:46:52;7.30;95.00
12013;DHT22;6065;48.138;16.402;2023-04-03T08:49:22;7.20;95.20
12013;DHT22;6065;48.138;16.402;2023-04-03T08:51:50;7.20;95.30
12013;DHT22;6065;48.138;16.402;2023-04-03T08:54:21;7.30;95.20
12013;DHT22;6065;48.138;16.402;2023-04-03T08:56:52;7.40;94.90
12013;DHT22;6065;48.138;16.402;2023-04-03T08:59:21;7.50;94.80
12013;DHT22;6065;48.138;16.402;2023-04-03T09:01:50;7.60;94.30
12013;DHT22;6065;48.138;16.402;2023-04-03T09:04:18;7.60;94.20
12013;DHT22;6065;48.138;16.402;2023-04-03T09:06:45;7.60;93.30
12013;DHT22;6065;48.138;16.402;2023-04-03T09:09:14;7.70;92.90
12013;DHT22;6065;48.138;16.402;2023-04-03T09:11:44;7.80;92.90
12013;DHT22;6065;48.138;16.402;2023-04-03T09:14:15;7.90;92.70
12013;DHT22;6065;48.138;16.402;2023-04-03T09:16:47;7.80;92.50
12013;DHT22;6065;48.138;16.402;2023-04-03T09:19:15;7.70;92.10
12013;DHT22;6065;48.138;16.402;2023-04-03T09:21:46;7.70;92.00
12013;DHT22;6065;48.138;16.402;2023-04-03T09:24:13;7.60;92.20
12013;DHT22;6065;48.138;16.402;2023-04-03T09:26:42;7.60;92.40
12013;DHT22;6065;48.138;16.402;2023-04-03T09:29:10;7.60;91.80
12013;DHT22;6065;48.138;16.402;2023-04-03T09:31:42;7.50;91.90
12013;DHT22;6065;48.138;16.402;2023-04-03T09:34:10;7.60;92.20
12013;DHT22;6065;48.138;16.402;2023-04-03T09:36:40;7.60;92.40
12013;DHT22;6065;48.138;16.402;2023-04-03T09:39:10;7.70;92.70
12013;DHT22;6065;48.138;16.402;2023-04-03T09:41:37;7.80;92.80
12013;DHT22;6065;48.138;16.402;2023-04-03T09:44:17;7.80;92.60
12013;DHT22;6065;48.138;16.402;2023-04-03T09:46:48;7.80;92.40
12013;DHT22;6065;48.138;16.402;2023-04-03T09:49:15;7.90;91.90
12013;DHT22;6065;48.138;16.402;2023-04-03T09:51:41;8.00;91.60
12013;DHT22;6065;48.138;16.402;2023-04-03T09:54:23;8.00;91.60
12013;DHT22;6065;48.138;16.402;2023-04-03T09:56:50;8.00;91.50
12013;DHT22;6065;48.138;16.402;2023-04-03T09:59:17;7.90;91.70
12013;DHT22;6065;48.138;16.402;2023-04-03T10:01:55;7.80;92.00
12013;DHT22;6065;48.138;16.402;2023-04-03T10:04:24;7.80;92.20
12013;DHT22;6065;48.138;16.402;2023-04-03T10:06:51;7.80;92.10
12013;DHT22;6065;48.138;16.402;2023-04-03T10:09:19;7.80;91.60
12013;DHT22;6065;48.138;16.402;2023-04-03T10:14:30;7.60;90.10
12013;DHT22;6065;48.138;16.402;2023-04-03T10:16:59;7.60;90.40
12013;DHT22;6065;48.138;16.402;2023-04-03T10:19:32;7.50;90.70
12013;DHT22;6065;48.138;16.402;2023-04-03T10:22:03;7.50;90.60
12013;DHT22;6065;48.138;16.402;2023-04-03T10:24:36;7.50;90.60
12013;DHT22;6065;48.138;16.402;2023-04-03T10:27:09;7.50;90.70
12013;DHT22;6065;48.138;16.402;2023-04-03T10:29:39;7.60;90.90
12013;DHT22;6065;48.138;16.402;2023-04-03T10:32:20;7.60;90.90
12013;DHT22;6065;48.138;16.402;2023-04-03T10:34:52;7.60;90.80
12013;DHT22;6065;48.138;16.402;2023-04-03T10:37:21;7.60;91.00
12013;DHT22;6065;48.138;16.402;2023-04-03T10:39:51;7.60;91.20
12013;DHT22;6065;48.138;16.402;2023-04-03T10:42:22;7.70;91.40
12013;DHT22;6065;48.138;16.402;2023-04-03T10:44:54;7.70;90.70
12013;DHT22;6065;48.138;16.402;2023-04-03T10:47:24;7.70;90.40
12013;DHT22;6065;48.138;16.402;2023-04-03T10:49:58;7.70;90.10
12013;DHT22;6065;48.138;16.402;2023-04-03T10:52:28;7.70;90.00
12013;DHT22;6065;48.138;16.402;2023-04-03T10:55:00;7.70;89.40
12013;DHT22;6065;48.138;16.402;2023-04-03T10:57:29;7.70;89.30
12013;DHT22;6065;48.138;16.402;2023-04-03T10:59:56;7.70;89.60
12013;DHT22;6065;48.138;16.402;2023-04-03T11:02:25;7.80;88.30
12013;DHT22;6065;48.138;16.402;2023-04-03T11:04:53;7.90;88.70
12013;DHT22;6065;48.138;16.402;2023-04-03T11:07:24;8.00;87.50
12013;DHT22;6065;48.138;16.402;2023-04-03T11:09:53;7.90;86.70
12013;DHT22;6065;48.138;16.402;2023-04-03T11:12:23;8.00;86.10
12013;DHT22;6065;48.138;16.402;2023-04-03T11:14:51;8.00;86.10
12013;DHT22;6065;48.138;16.402;2023-04-03T11:17:22;8.00;85.90
12013;DHT22;6065;48.138;16.402;2023-04-03T11:19:52;8.00;86.00
12013;DHT22;6065;48.138;16.402;2023-04-03T11:22:25;7.90;86.10
12013;DHT22;6065;48.138;16.402;2023-04-03T11:24:56;7.80;85.80
12013;DHT22;6065;48.138;16.402;2023-04-03T11:27:24;7.70;86.60
12013;DHT22;6065;48.138;16.402;2023-04-03T11:29:52;7.70;85.80
12013;DHT22;6065;48.138;16.402;2023-04-03T11:32:33;7.60;85.50
12013;DHT22;6065;48.138;16.402;2023-04-03T11:35:02;7.50;86.50
12013;DHT22;6065;48.138;16.402;2023-04-03T11:37:33;7.60;86.00
12013;DHT22;6065;48.138;16.402;2023-04-03T11:40:02;7.60;85.90
12013;DHT22;6065;48.138;16.402;2023-04-03T11:42:32;7.50;85.90
12013;DHT22;6065;48.138;16.402;2023-04-03T11:45:15;7.60;86.20
12013;DHT22;6065;48.138;16.402;2023-04-03T11:47:44;7.60;86.70
12013;DHT22;6065;48.138;16.402;2023-04-03T11:53:01;7.60;85.70
12013;DHT22;6065;48.138;16.402;2023-04-03T11:58:14;7.50;84.90
12013;DHT22;6065;48.138;16.402;2023-04-03T12:03:30;7.50;84.80
12013;DHT22;6065;48.138;16.402;2023-04-03T12:05:57;7.50;84.10
12013;DHT22;6065;48.138;16.402;2023-04-03T12:08:45;7.50;83.60
12013;DHT22;6065;48.138;16.402;2023-04-03T12:11:19;7.50;83.60
12013;DHT22;6065;48.138;16.402;2023-04-03T12:14:03;7.50;84.10
12013;DHT22;6065;48.138;16.402;2023-04-03T12:16:30;7.50;83.30
12013;DHT22;6065;48.138;16.402;2023-04-03T12:19:00;7.50;83.00
12013;DHT22;6065;48.138;16.402;2023-04-03T12:24:26;7.50;82.40
12013;DHT22;6065;48.138;16.402;2023-04-03T12:27:11;7.50;81.80
12013;DHT22;6065;48.138;16.402;2023-04-03T12:29:43;7.50;81.60
12013;DHT22;6065;48.138;16.402;2023-04-03T12:32:15;7.50;82.60
12013;DHT22;6065;48.138;16.402;2023-04-03T12:34:50;7.40;81.70
12013;DHT22;6065;48.138;16.402;2023-04-03T12:37:24;7.30;81.10
12013;DHT22;6065;48.138;16.402;2023-04-03T12:39:56;7.30;80.80
12013;DHT22;6065;48.138;16.402;2023-04-03T12:42:43;7.30;80.10
12013;DHT22;6065;48.138;16.402;2023-04-03T12:45:19;7.30;80.50
12013;DHT22;6065;48.138;16.402;2023-04-03T12:47:48;7.40;80.40
12013;DHT22;6065;48.138;16.402;2023-04-03T12:50:17;7.40;80.10
12013;DHT22;6065;48.138;16.402;2023-04-03T12:52:45;7.40;80.10
12013;DHT22;6065;48.138;16.402;2023-04-03T12:55:16;7.40;80.50
12013;DHT22;6065;48.138;16.402;2023-04-03T12:57:43;7.40;80.50
12013;DHT22;6065;48.138;16.402;2023-04-03T13:00:21;7.40;79.70
12013;DHT22;6065;48.138;16.402;2023-04-03T13:02:48;7.40;80.30
12013;DHT22;6065;48.138;16.402;2023-04-03T13:05:17;7.30;79.80
12013;DHT22;6065;48.138;16.402;2023-04-03T13:07:44;7.40;78.80
12013;DHT22;6065;48.138;16.402;2023-04-03T13:10:16;7.40;79.20
12013;DHT22;6065;48.138;16.402;2023-04-03T13:12:48;7.40;79.00
12013;DHT22;6065;48.138;16.402;2023-04-03T13:15:16;7.40;78.60
12013;DHT22;6065;48.138;16.402;2023-04-03T13:17:44;7.40;79.10
12013;DHT22;6065;48.138;16.402;2023-04-03T13:20:16;7.50;79.20
12013;DHT22;6065;48.138;16.402;2023-04-03T13:22:46;7.40;79.10
12013;DHT22;6065;48.138;16.402;2023-04-03T13:25:17;7.40;79.40
12013;DHT22;6065;48.138;16.402;2023-04-03T13:27:43;7.40;80.00
12013;DHT22;6065;48.138;16.402;2023-04-03T13:30:20;7.40;79.60
12013;DHT22;6065;48.138;16.402;2023-04-03T13:32:47;7.40;79.90
12013;DHT22;6065;48.138;16.402;2023-04-03T13:35:25;7.40;79.80
12013;DHT22;6065;48.138;16.402;2023-04-03T13:37:53;7.50;79.20
12013;DHT22;6065;48.138;16.402;2023-04-03T13:40:22;7.60;79.40
12013;DHT22;6065;48.138;16.402;2023-04-03T13:42:58;7.60;79.60
12013;DHT22;6065;48.138;16.402;2023-04-03T13:45:26;7.70;80.00
12013;DHT22;6065;48.138;16.402;2023-04-03T13:47:54;7.80;79.70
12013;DHT22;6065;48.138;16.402;2023-04-03T13:50:32;7.80;80.20
12013;DHT22;6065;48.138;16.402;2023-04-03T13:53:00;7.80;79.90
12013;DHT22;6065;48.138;16.402;2023-04-03T13:55:29;7.80;79.90
12013;DHT22;6065;48.138;16.402;2023-04-03T13:57:58;7.80;80.00
12013;DHT22;6065;48.138;16.402;2023-04-03T14:00:29;7.70;79.60
12013;DHT22;6065;48.138;16.402;2023-04-03T14:02:57;7.70;79.70
12013;DHT22;6065;48.138;16.402;2023-04-03T14:05:24;7.80;79.80
12013;DHT22;6065;48.138;16.402;2023-04-03T14:07:52;7.70;79.40
12013;DHT22;6065;48.138;16.402;2023-04-03T14:10:19;7.70;80.20
12013;DHT22;6065;48.138;16.402;2023-04-03T14:12:48;7.70;80.20
12013;DHT22;6065;48.138;16.402;2023-04-03T14:15:18;7.80;79.60
12013;DHT22;6065;48.138;16.402;2023-04-03T14:17:44;7.80;79.00
12013;DHT22;6065;48.138;16.402;2023-04-03T14:20:14;7.80;78.90
12013;DHT22;6065;48.138;16.402;2023-04-03T14:22:41;7.90;79.30
12013;DHT22;6065;48.138;16.402;2023-04-03T14:25:08;7.90;78.50
12013;DHT22;6065;48.138;16.402;2023-04-03T14:27:36;8.00;78.70
12013;DHT22;6065;48.138;16.402;2023-04-03T14:30:07;8.00;78.70
12013;DHT22;6065;48.138;16.402;2023-04-03T14:32:34;8.20;77.90
12013;DHT22;6065;48.138;16.402;2023-04-03T14:35:00;8.20;78.40
12013;DHT22;6065;48.138;16.402;2023-04-03T14:37:28;8.20;78.20
12013;DHT22;6065;48.138;16.402;2023-04-03T14:39:56;8.20;77.90
12013;DHT22;6065;48.138;16.402;2023-04-03T14:42:23;8.10;78.40
12013;DHT22;6065;48.138;16.402;2023-04-03T14:44:50;8.10;79.00
12013;DHT22;6065;48.138;16.402;2023-04-03T14:47:20;8.10;78.60
12013;DHT22;6065;48.138;16.402;2023-04-03T14:49:47;8.00;78.90
12013;DHT22;6065;48.138;16.402;2023-04-03T14:52:16;8.00;79.70
12013;DHT22;6065;48.138;16.402;2023-04-03T14:54:44;7.90;79.60
12013;DHT22;6065;48.138;16.402;2023-04-03T14:57:11;7.80;80.00
12013;DHT22;6065;48.138;16.402;2023-04-03T14:59:39;7.80;79.90
12013;DHT22;6065;48.138;16.402;2023-04-03T15:02:10;7.70;80.10
12013;DHT22;6065;48.138;16.402;2023-04-03T15:04:46;7.80;80.00
12013;DHT22;6065;48.138;16.402;2023-04-03T15:07:13;7.70;78.30
12013;DHT22;6065;48.138;16.402;2023-04-03T15:09:40;7.70;78.00
12013;DHT22;6065;48.138;16.402;2023-04-03T15:12:07;7.70;78.70
12013;DHT22;6065;48.138;16.402;2023-04-03T15:14:34;7.60;78.70
12013;DHT22;6065;48.138;16.402;2023-04-03T15:17:01;7.60;78.20
12013;DHT22;6065;48.138;16.402;2023-04-03T15:19:28;7.50;78.00
12013;DHT22;6065;48.138;16.402;2023-04-03T15:21:57;7.60;77.20
12013;DHT22;6065;48.138;16.402;2023-04-03T15:24:24;7.70;76.80
12013;DHT22;6065;48.138;16.402;2023-04-03T15:26:50;7.70;76.40
12013;DHT22;6065;48.138;16.402;2023-04-03T15:29:17;7.70;76.30
12013;DHT22;6065;48.138;16.402;2023-04-03T15:31:44;7.70;76.90
12013;DHT22;6065;48.138;16.402;2023-04-03T15:34:11;7.70;76.40
12013;DHT22;6065;48.138;16.402;2023-04-03T15:36:37;7.60;76.20
12013;DHT22;6065;48.138;16.402;2023-04-03T15:39:06;7.60;76.50
12013;DHT22;6065;48.138;16.402;2023-04-03T15:41:32;7.50;77.00
12013;DHT22;6065;48.138;16.402;2023-04-03T15:43:59;7.50;76.90
12013;DHT22;6065;48.138;16.402;2023-04-03T15:46:26;7.50;77.00
12013;DHT22;6065;48.138;16.402;2023-04-03T15:48:53;7.50;77.40
12013;DHT22;6065;48.138;16.402;2023-04-03T15:51:19;7.40;78.00
12013;DHT22;6065;48.138;16.402;2023-04-03T15:53:46;7.40;77.50
12013;DHT22;6065;48.138;16.402;2023-04-03T15:56:14;7.30;77.50
12013;DHT22;6065;48.138;16.402;2023-04-03T15:58:41;7.30;77.50
12013;DHT22;6065;48.138;16.402;2023-04-03T16:01:08;7.30;77.30
12013;DHT22;6065;48.138;16.402;2023-04-03T16:03:35;7.30;77.40
12013;DHT22;6065;48.138;16.402;2023-04-03T16:06:04;7.30;77.30